Time;durP1;ratioP1;P1;durP2;ratioP2;P2;SDS_P1;SDS_P2;PMS_P1;PMS_P2;Temp;Humidity;BMP_temperature;BMP_pressure;BME280_temperature;BME280_humidity;BME280_pressure;Samples;Min_cycle;Max_cycle;Signal;HPM_P1;HPM_P2
2020/12/15 00:01:45;;;;;;;10.98;1.98;;;10.00;99.90;;;;;;5002474;28;20045;-60
2020/12/15 00:04:10;;;;;;;5.82;1.98;;;10.00;99.90;;;;;;5002226;28;20087;-62
2020/12/15 00:06:36;;;;;;;4.00;1.92;;;10.00;99.90;;;;;;5002780;28;20084;-62
2020/12/15 00:09:01;;;;;;;7.18;2.05;;;10.00;99.90;;;;;;5001476;28;20026;-61
2020/12/15 00:11:27;;;;;;;4.47;2.30;;;10.00;99.90;;;;;;4999726;28;20038;-62
2020/12/15 00:13:52;;;;;;;6.93;2.88;;;10.00;99.90;;;;;;5003038;28;20458;-60
2020/12/15 00:16:18;;;;;;;4.20;2.00;;;9.90;99.90;;;;;;5001493;28;20530;-61
2020/12/15 00:18:44;;;;;;;5.78;2.03;;;10.00;99.90;;;;;;4999983;28;20486;-61
2020/12/15 00:21:09;;;;;;;7.68;2.15;;;10.00;99.90;;;;;;5000559;28;20042;-61
2020/12/15 00:23:35;;;;;;;5.53;2.33;;;10.00;99.90;;;;;;4998253;28;20026;-61
2020/12/15 00:26:00;;;;;;;6.53;2.33;;;10.00;99.90;;;;;;5001569;28;20178;-60
2020/12/15 00:28:26;;;;;;;6.60;2.38;;;10.00;99.90;;;;;;5002822;28;20455;-60
2020/12/15 00:30:52;;;;;;;4.95;2.40;;;10.00;99.90;;;;;;5002013;28;20037;-62
2020/12/15 00:33:17;;;;;;;4.78;2.42;;;10.00;99.90;;;;;;5001209;28;20033;-60
2020/12/15 00:35:43;;;;;;;4.47;2.45;;;10.00;99.90;;;;;;5002509;28;20394;-61
2020/12/15 00:38:08;;;;;;;8.27;2.92;;;10.00;99.90;;;;;;5002749;28;20120;-61
2020/12/15 00:40:34;;;;;;;5.22;2.65;;;10.00;99.90;;;;;;4998931;28;20026;-62
2020/12/15 00:43:00;;;;;;;4.57;2.47;;;9.90;99.90;;;;;;5002266;28;20050;-61
2020/12/15 00:45:25;;;;;;;7.18;2.95;;;9.90;99.90;;;;;;5003067;28;20241;-61
2020/12/15 00:47:51;;;;;;;8.60;2.60;;;9.90;99.90;;;;;;5002305;28;20466;-61
2020/12/15 00:50:17;;;;;;;6.55;3.08;;;9.90;99.90;;;;;;5002157;28;20061;-63
2020/12/15 00:52:42;;;;;;;6.35;3.17;;;9.90;99.90;;;;;;5002642;28;20721;-61
2020/12/15 00:55:08;;;;;;;5.85;2.72;;;9.90;99.90;;;;;;5001736;28;20057;-60
2020/12/15 00:57:33;;;;;;;5.50;2.80;;;9.90;99.90;;;;;;4999073;28;20034;-60
2020/12/15 00:59:59;;;;;;;7.25;3.35;;;9.90;99.90;;;;;;5000999;28;20058;-61
2020/12/15 01:02:25;;;;;;;7.65;3.42;;;9.80;99.90;;;;;;5000711;28;20148;-62
2020/12/15 01:04:51;;;;;;;7.72;3.35;;;9.90;99.90;;;;;;5001367;28;20039;-61
2020/12/15 01:07:16;;;;;;;6.22;3.00;;;9.90;99.90;;;;;;5000579;28;20030;-61
2020/12/15 01:09:42;;;;;;;5.93;3.72;;;9.90;99.90;;;;;;4999405;28;20042;-61
2020/12/15 01:12:11;;;;;;;7.35;3.60;;;9.80;99.90;;;;;;5001975;28;20033;-60
2020/12/15 01:14:38;;;;;;;8.00;3.58;;;9.90;99.90;;;;;;4999336;28;20053;-61
2020/12/15 01:17:06;;;;;;;11.63;3.97;;;9.80;99.90;;;;;;5002119;28;20405;-61
2020/12/15 01:19:32;;;;;;;7.03;4.10;;;9.80;99.90;;;;;;4998897;28;20038;-61
2020/12/15 01:21:57;;;;;;;6.07;3.75;;;9.70;99.90;;;;;;5001507;28;20041;-61
2020/12/15 01:24:25;;;;;;;7.85;4.22;;;9.70;99.90;;;;;;4999607;28;20042;-61
2020/12/15 01:26:51;;;;;;;8.18;4.07;;;9.70;99.90;;;;;;4998235;28;20399;-61
2020/12/15 01:29:17;;;;;;;12.07;3.97;;;9.70;99.90;;;;;;5000183;28;20184;-61
2020/12/15 01:31:42;;;;;;;6.60;3.50;;;9.70;99.90;;;;;;4997778;28;20559;-62
2020/12/15 01:34:08;;;;;;;8.63;4.20;;;9.60;99.90;;;;;;5000197;28;20506;-61
2020/12/15 01:36:34;;;;;;;6.15;3.72;;;9.60;99.90;;;;;;4998617;28;20380;-61
2020/12/15 01:38:59;;;;;;;10.35;3.58;;;9.50;99.90;;;;;;5001891;28;20030;-61
2020/12/15 01:41:25;;;;;;;6.47;3.83;;;9.50;99.90;;;;;;4998884;28;20034;-60
2020/12/15 01:43:56;;;;;;;7.25;3.70;;;9.50;99.90;;;;;;5000689;28;20057;-61
2020/12/15 01:46:22;;;;;;;10.15;3.83;;;9.50;99.90;;;;;;4998969;28;20052;-61
2020/12/15 01:48:47;;;;;;;9.73;3.55;;;9.60;99.90;;;;;;4999646;28;20117;-62
2020/12/15 01:51:14;;;;;;;8.20;3.63;;;9.60;99.90;;;;;;5000130;28;20121;-61
2020/12/15 01:53:40;;;;;;;10.57;3.75;;;9.50;99.90;;;;;;4999741;28;20030;-61
2020/12/15 01:56:06;;;;;;;8.68;4.22;;;9.50;99.90;;;;;;4999585;28;20034;-61
2020/12/15 01:58:32;;;;;;;8.45;4.10;;;9.50;99.90;;;;;;4998568;28;20030;-62
2020/12/15 02:00:57;;;;;;;10.80;4.03;;;9.50;99.90;;;;;;4998036;28;20093;-61
2020/12/15 02:03:23;;;;;;;8.40;3.97;;;9.50;99.90;;;;;;5001162;28;20030;-60
2020/12/15 02:05:48;;;;;;;8.02;3.97;;;9.50;99.90;;;;;;4999268;28;20554;-61
2020/12/15 02:08:14;;;;;;;9.48;4.07;;;9.50;99.90;;;;;;4999084;28;20499;-61
2020/12/15 02:10:39;;;;;;;7.13;4.00;;;9.50;99.90;;;;;;4999817;28;20048;-62
2020/12/15 02:13:05;;;;;;;7.50;3.60;;;9.50;99.90;;;;;;4997771;28;20031;-61
2020/12/15 02:15:30;;;;;;;5.13;3.10;;;9.50;99.90;;;;;;4999969;28;20128;-60
2020/12/15 02:17:56;;;;;;;6.85;3.95;;;9.50;99.90;;;;;;4993097;28;20035;-61
2020/12/15 02:20:21;;;;;;;8.98;4.03;;;9.50;99.90;;;;;;4999480;28;20120;-61
2020/12/15 02:22:47;;;;;;;7.88;4.10;;;9.50;99.90;;;;;;4997537;28;20561;-61
2020/12/15 02:25:12;;;;;;;5.32;3.33;;;9.50;99.90;;;;;;4995801;28;20408;-62
2020/12/15 02:27:38;;;;;;;6.55;3.53;;;9.50;99.90;;;;;;4998507;28;20502;-61
2020/12/15 02:30:07;;;;;;;7.78;3.30;;;9.50;99.90;;;;;;4997805;28;20037;-61
2020/12/15 02:32:36;;;;;;;11.93;4.15;;;9.50;99.90;;;;;;5000862;28;20041;-62
2020/12/15 02:35:02;;;;;;;11.43;4.53;;;9.50;99.90;;;;;;4997634;28;20451;-62
2020/12/15 02:37:28;;;;;;;7.60;3.55;;;9.50;99.90;;;;;;4999908;28;20034;-61
2020/12/15 02:40:02;;;;;;;7.88;3.42;;;9.50;99.90;;;;;;4996687;28;20097;-61
2020/12/15 02:42:29;;;;;;;5.53;3.10;;;9.50;99.90;;;;;;4993755;28;20038;-62
2020/12/15 02:44:55;;;;;;;13.38;4.15;;;9.50;99.90;;;;;;4998072;28;20064;-60
2020/12/15 02:47:20;;;;;;;6.13;3.33;;;9.50;99.90;;;;;;4997755;28;20104;-62
2020/12/15 02:49:46;;;;;;;6.75;3.40;;;9.50;99.90;;;;;;4997495;28;20394;-61
2020/12/15 02:52:11;;;;;;;15.45;4.22;;;9.50;99.90;;;;;;4998464;28;20057;-62
2020/12/15 02:54:37;;;;;;;8.75;3.72;;;9.50;99.90;;;;;;4998879;28;20034;-61
2020/12/15 02:57:03;;;;;;;6.40;3.45;;;9.60;99.90;;;;;;5000231;28;20085;-62
2020/12/15 02:59:28;;;;;;;6.35;3.15;;;9.50;99.90;;;;;;4992856;28;20048;-61
2020/12/15 03:01:54;;;;;;;6.63;2.97;;;9.60;99.90;;;;;;4997499;28;20514;-61
2020/12/15 03:04:19;;;;;;;5.90;3.03;;;9.50;99.90;;;;;;4999783;28;20088;-61
2020/12/15 03:06:45;;;;;;;6.03;3.15;;;9.60;99.90;;;;;;4996955;28;20038;-61
2020/12/15 03:09:11;;;;;;;9.63;3.50;;;9.60;99.90;;;;;;4998750;28;20030;-63
2020/12/15 03:11:37;;;;;;;9.00;2.80;;;9.60;99.90;;;;;;4999270;28;20393;-61
2020/12/15 03:14:03;;;;;;;7.30;3.65;;;9.50;99.90;;;;;;4997990;28;20514;-61
2020/12/15 03:16:29;;;;;;;7.18;3.20;;;9.60;99.90;;;;;;5000032;28;20049;-61
2020/12/15 03:18:55;;;;;;;9.73;3.35;;;9.60;99.90;;;;;;4992667;28;20031;-61
2020/12/15 03:21:21;;;;;;;6.55;3.03;;;9.60;99.90;;;;;;4999621;28;20032;-61
2020/12/15 03:23:47;;;;;;;10.70;4.10;;;9.60;99.90;;;;;;5002130;28;20363;-61
2020/12/15 03:26:12;;;;;;;7.50;3.08;;;9.60;99.90;;;;;;5001818;28;20030;-62
2020/12/15 03:28:38;;;;;;;8.60;3.65;;;9.60;99.90;;;;;;5002297;28;20033;-61
2020/12/15 03:31:03;;;;;;;8.20;3.28;;;9.60;99.90;;;;;;5003519;28;20387;-60
2020/12/15 03:33:29;;;;;;;7.60;3.28;;;9.60;99.90;;;;;;5001178;28;20030;-62
2020/12/15 03:35:55;;;;;;;5.28;2.95;;;9.60;99.90;;;;;;5003012;28;20029;-61
2020/12/15 03:38:20;;;;;;;7.60;3.10;;;9.60;99.90;;;;;;5000367;28;20026;-61
2020/12/15 03:40:46;;;;;;;7.90;2.80;;;9.60;99.90;;;;;;5003170;28;20034;-61
2020/12/15 03:43:12;;;;;;;6.32;3.15;;;9.60;99.90;;;;;;5008670;28;20026;-61
2020/12/15 03:45:44;;;;;;;6.07;2.90;;;9.60;99.90;;;;;;5001734;28;20479;-61
2020/12/15 03:48:13;;;;;;;9.43;3.67;;;9.60;99.90;;;;;;5001890;28;20057;-62
2020/12/15 03:50:39;;;;;;;5.50;3.50;;;9.60;99.90;;;;;;5001703;28;20030;-62
2020/12/15 03:53:05;;;;;;;7.65;4.07;;;9.60;99.90;;;;;;5002403;28;20517;-61
2020/12/15 03:55:31;;;;;;;7.68;3.80;;;9.60;99.90;;;;;;5000787;28;20038;-61
2020/12/15 03:57:57;;;;;;;8.07;3.95;;;9.60;99.90;;;;;;5003531;28;20533;-61
2020/12/15 04:00:23;;;;;;;9.77;4.13;;;9.70;99.90;;;;;;4999770;28;20030;-61
2020/12/15 04:02:48;;;;;;;9.50;3.53;;;9.60;99.90;;;;;;5003170;28;20044;-61
2020/12/15 04:05:14;;;;;;;11.77;4.05;;;9.60;99.90;;;;;;5001202;28;20309;-61
2020/12/15 04:07:41;;;;;;;8.23;4.35;;;9.60;99.90;;;;;;5001474;28;20384;-62
2020/12/15 04:10:06;;;;;;;8.57;4.22;;;9.60;99.90;;;;;;5002138;28;20030;-61
2020/12/15 04:12:32;;;;;;;6.07;3.47;;;9.60;99.90;;;;;;4997144;28;20043;-62
2020/12/15 04:14:58;;;;;;;10.20;4.15;;;9.60;99.90;;;;;;5003240;28;20522;-61
2020/12/15 04:17:23;;;;;;;9.50;3.90;;;9.60;99.90;;;;;;4999734;28;20057;-60
2020/12/15 04:19:49;;;;;;;12.27;4.18;;;9.60;99.90;;;;;;5003427;28;20125;-61
2020/12/15 04:22:14;;;;;;;7.63;4.15;;;9.60;99.90;;;;;;5003565;28;20080;-61
2020/12/15 04:24:40;;;;;;;7.03;3.45;;;9.60;99.90;;;;;;5000875;28;20061;-63
2020/12/15 04:27:05;;;;;;;6.43;3.58;;;9.60;99.90;;;;;;4998826;28;20034;-61
2020/12/15 04:29:31;;;;;;;7.75;4.05;;;9.50;99.90;;;;;;5000531;28;20037;-61
2020/12/15 04:31:57;;;;;;;6.53;3.60;;;9.60;99.90;;;;;;5000389;28;20034;-62
2020/12/15 04:34:22;;;;;;;6.63;3.28;;;9.60;99.90;;;;;;5002817;28;20041;-61
2020/12/15 04:36:48;;;;;;;8.40;3.60;;;9.50;99.90;;;;;;4998350;28;20460;-61
2020/12/15 04:39:13;;;;;;;6.35;3.20;;;9.50;99.90;;;;;;5002377;28;20502;-62
2020/12/15 04:41:39;;;;;;;7.00;3.50;;;9.50;99.90;;;;;;5000091;28;20022;-60
2020/12/15 04:44:05;;;;;;;6.43;3.60;;;9.50;99.90;;;;;;5001247;28;20498;-61
2020/12/15 04:46:36;;;;;;;10.32;3.50;;;9.60;99.90;;;;;;5001703;28;20092;-61
2020/12/15 04:49:04;;;;;;;;;;;9.60;99.90;;;;;;5014783;23;20128;-65
2020/12/15 04:51:42;;;;;;;7.22;3.30;;;9.60;99.90;;;;;;4998115;28;19960;-64
2020/12/15 04:54:16;;;;;;;5.70;3.20;;;9.60;99.90;;;;;;5000831;28;20087;-64
2020/12/15 04:56:44;;;;;;;7.15;4.10;;;9.50;99.90;;;;;;5002408;28;20506;-64
2020/12/15 04:59:12;;;;;;;5.60;3.17;;;9.60;99.90;;;;;;4999601;28;20037;-63
2020/12/15 05:01:39;;;;;;;7.53;2.97;;;9.60;99.90;;;;;;5002001;28;20035;-65
2020/12/15 05:04:07;;;;;;;6.80;3.30;;;9.60;99.90;;;;;;4999571;28;20364;-63
2020/12/15 05:06:37;;;;;;;6.18;3.00;;;9.60;99.90;;;;;;5002827;28;20038;-64
2020/12/15 05:09:04;;;;;;;6.18;3.30;;;9.60;99.90;;;;;;5001059;28;20106;-65
2020/12/15 05:11:29;;;;;;;6.32;3.30;;;9.60;99.90;;;;;;5002039;28;20036;-64
2020/12/15 05:13:55;;;;;;;6.13;3.53;;;9.60;99.90;;;;;;4997911;28;20030;-64
2020/12/15 05:16:21;;;;;;;7.50;3.70;;;9.60;99.90;;;;;;5002806;28;20034;-64
2020/12/15 05:18:46;;;;;;;9.30;3.33;;;9.60;99.90;;;;;;4999868;28;20038;-65
2020/12/15 05:21:16;;;;;;;6.88;3.65;;;9.60;99.90;;;;;;5000585;28;20034;-64
2020/12/15 05:23:49;;;;;;;9.03;3.73;;;9.60;99.90;;;;;;5000371;28;20122;-65
2020/12/15 05:26:24;;;;;;;4.60;2.90;;;9.60;99.90;;;;;;5000760;28;20335;-63
2020/12/15 05:29:08;;;;;;;7.05;3.20;;;9.60;99.90;;;;;;4995713;28;20038;-65
2020/12/15 05:31:40;;;;;;;5.18;3.08;;;9.50;99.90;;;;;;4993052;28;20114;-65
2020/12/15 05:34:06;;;;;;;6.80;2.85;;;9.50;99.90;;;;;;4996066;28;20030;-66
2020/12/15 05:36:32;;;;;;;8.50;3.47;;;9.50;99.90;;;;;;4993950;28;20041;-66
2020/12/15 05:39:06;;;;;;;7.35;3.20;;;9.50;99.90;;;;;;4994912;28;20026;-65
2020/12/15 05:41:33;;;;;;;9.73;4.30;;;9.50;99.90;;;;;;4993389;28;20392;-65
2020/12/15 05:43:59;;;;;;;8.32;3.42;;;9.60;99.90;;;;;;4996931;28;20398;-65
2020/12/15 05:46:28;;;;;;;6.20;3.00;;;9.60;99.90;;;;;;4994170;28;20037;-66
2020/12/15 05:49:04;;;;;;;7.57;3.10;;;9.50;99.90;;;;;;5001335;28;20037;-65
2020/12/15 05:51:42;;;;;;;7.25;2.97;;;9.50;99.90;;;;;;4998415;28;20065;-63
2020/12/15 05:54:13;;;;;;;5.13;2.65;;;9.50;99.90;;;;;;4998557;28;20498;-63
2020/12/15 05:56:39;;;;;;;9.20;4.10;;;9.50;99.90;;;;;;4986354;28;20034;-64
2020/12/15 05:59:18;;;;;;;6.55;3.50;;;9.50;99.90;;;;;;4992814;28;20031;-64
2020/12/15 06:02:02;;;;;;;6.63;3.08;;;9.50;99.90;;;;;;4989435;28;20041;-62
2020/12/15 06:04:27;;;;;;;7.88;2.55;;;9.50;99.90;;;;;;4998383;28;20115;-64
2020/12/15 06:06:54;;;;;;;6.50;2.63;;;9.50;99.90;;;;;;5021308;28;20073;-65
2020/12/15 06:09:20;;;;;;;7.78;3.05;;;9.50;99.90;;;;;;4999450;28;20030;-64
2020/12/15 06:11:46;;;;;;;6.25;3.03;;;9.50;99.90;;;;;;5000290;28;20073;-65
2020/12/15 06:14:14;;;;;;;6.82;2.95;;;9.50;99.90;;;;;;4997573;28;20035;-63
2020/12/15 06:16:41;;;;;;;6.20;3.03;;;9.50;99.90;;;;;;4996815;28;20026;-64
2020/12/15 06:19:08;;;;;;;6.30;2.85;;;9.50;99.90;;;;;;4997345;28;20364;-64
2020/12/15 06:21:39;;;;;;;4.72;2.60;;;9.50;99.90;;;;;;4998186;28;20037;-65
2020/12/15 06:24:05;;;;;;;;;;;9.50;99.90;;;;;;4997083;28;20032;-64
2020/12/15 06:26:33;;;;;;;6.10;2.83;;;9.50;99.90;;;;;;4998070;28;20197;-64
2020/12/15 06:29:00;;;;;;;8.75;2.83;;;9.50;99.90;;;;;;4998608;28;20387;-64
2020/12/15 06:31:26;;;;;;;6.88;3.15;;;9.50;99.90;;;;;;4997680;28;20068;-64
2020/12/15 06:34:02;;;;;;;9.68;2.95;;;9.50;99.90;;;;;;5000189;28;20479;-64
2020/12/15 06:36:30;;;;;;;5.07;2.88;;;9.50;99.90;;;;;;4998035;28;20034;-63
2020/12/15 06:38:58;;;;;;;6.05;2.50;;;9.50;99.90;;;;;;4999114;28;20124;-64
2020/12/15 06:41:24;;;;;;;6.78;2.72;;;9.50;99.90;;;;;;4996271;28;20047;-64
2020/12/15 06:43:50;;;;;;;8.70;2.92;;;9.50;99.90;;;;;;4999325;28;20030;-63
2020/12/15 06:46:25;;;;;;;5.22;2.55;;;9.60;99.90;;;;;;4995567;28;20057;-63
2020/12/15 06:48:53;;;;;;;8.00;3.03;;;9.60;99.90;;;;;;4998883;28;20034;-62
2020/12/15 06:51:31;;;;;;;8.70;2.95;;;9.60;99.90;;;;;;4997478;28;20030;-64
2020/12/15 06:54:00;;;;;;;7.22;2.72;;;9.60;99.90;;;;;;4998345;28;20036;-64
2020/12/15 06:56:26;;;;;;;7.47;3.03;;;9.60;99.90;;;;;;4996840;28;20069;-63
2020/12/15 06:59:07;;;;;;;6.90;3.13;;;9.60;99.90;;;;;;5000378;28;20034;-64
2020/12/15 07:01:33;;;;;;;7.13;3.10;;;9.60;99.90;;;;;;5000629;28;20116;-65
2020/12/15 07:04:01;;;;;;;5.40;2.50;;;9.60;99.90;;;;;;5003832;28;20112;-64
2020/12/15 07:06:28;;;;;;;6.93;3.58;;;9.60;99.90;;;;;;4999891;28;20042;-66
2020/12/15 07:09:01;;;;;;;7.13;2.70;;;9.60;99.90;;;;;;5003407;28;20026;-64
2020/12/15 07:11:29;;;;;;;9.02;2.53;;;9.60;99.90;;;;;;5003542;28;20045;-64
2020/12/15 07:14:05;;;;;;;5.93;2.80;;;9.60;99.90;;;;;;5000764;28;20022;-63
2020/12/15 07:16:32;;;;;;;6.07;2.88;;;9.60;99.90;;;;;;5003232;28;20402;-64
2020/12/15 07:18:57;;;;;;;4.22;2.55;;;9.60;99.90;;;;;;4998147;28;20070;-63
2020/12/15 07:21:23;;;;;;;6.28;2.67;;;9.60;99.90;;;;;;5003291;28;20522;-65
2020/12/15 07:23:50;;;;;;;4.70;2.60;;;9.60;99.90;;;;;;5002801;28;20037;-64
2020/12/15 07:26:17;;;;;;;5.80;2.92;;;9.60;99.90;;;;;;4999552;28;20026;-64
2020/12/15 07:28:45;;;;;;;6.05;2.78;;;9.60;99.90;;;;;;5002116;28;20588;-65
2020/12/15 07:31:12;;;;;;;7.20;3.17;;;9.60;99.90;;;;;;5000435;28;20035;-66
2020/12/15 07:33:41;;;;;;;6.38;2.80;;;9.60;99.90;;;;;;5003867;28;20034;-65
2020/12/15 07:36:16;;;;;;;8.43;2.65;;;9.60;99.90;;;;;;4998651;28;20161;-63
2020/12/15 07:38:44;;;;;;;9.77;3.00;;;9.60;99.90;;;;;;4998762;28;20053;-64
2020/12/15 07:41:16;;;;;;;5.10;3.10;;;9.60;99.90;;;;;;4996933;28;20039;-64
2020/12/15 07:43:52;;;;;;;9.30;2.90;;;9.60;99.90;;;;;;5000408;28;20410;-64
2020/12/15 07:46:19;;;;;;;11.93;3.05;;;9.60;99.90;;;;;;4998459;28;20502;-64
2020/12/15 07:48:46;;;;;;;6.93;2.85;;;9.60;99.90;;;;;;5003042;28;20072;-65
2020/12/15 07:51:11;;;;;;;7.95;2.70;;;9.60;99.90;;;;;;4999338;28;20034;-64
2020/12/15 07:53:37;;;;;;;7.03;2.45;;;9.60;99.90;;;;;;5003218;28;20415;-64
2020/12/15 07:56:05;;;;;;;5.45;2.70;;;9.60;99.90;;;;;;4998527;28;20034;-65
2020/12/15 07:58:31;;;;;;;8.43;3.03;;;9.60;99.90;;;;;;5002767;28;20444;-64
2020/12/15 08:00:57;;;;;;;11.32;3.40;;;9.60;99.90;;;;;;5001057;28;20164;-64
2020/12/15 08:03:23;;;;;;;8.00;3.33;;;9.60;99.90;;;;;;5003208;28;20049;-64
2020/12/15 08:05:48;;;;;;;5.82;2.60;;;9.70;99.90;;;;;;5000673;28;20367;-64
2020/12/15 08:08:15;;;;;;;8.35;3.45;;;9.70;99.90;;;;;;4999573;28;20038;-64
2020/12/15 08:10:41;;;;;;;7.00;2.72;;;9.60;99.90;;;;;;5002990;28;20034;-64
2020/12/15 08:13:06;;;;;;;6.38;3.03;;;9.60;99.90;;;;;;4997909;28;20470;-65
2020/12/15 08:15:44;;;;;;;7.05;2.95;;;9.70;99.90;;;;;;5001194;28;20614;-63
2020/12/15 08:18:11;;;;;;;6.68;3.15;;;9.70;99.90;;;;;;4994495;28;20053;-64
2020/12/15 08:20:38;;;;;;;5.88;3.20;;;9.70;99.90;;;;;;5002887;28;20026;-65
2020/12/15 08:23:03;;;;;;;9.48;3.58;;;9.70;99.90;;;;;;4999082;28;20042;-65
2020/12/15 08:25:29;;;;;;;6.93;2.65;;;9.70;99.90;;;;;;5000432;28;20122;-65
2020/12/15 08:28:23;;;;;;;9.77;3.65;;;9.70;99.90;;;;;;4999930;28;20041;-65
2020/12/15 08:30:53;;;;;;;6.85;3.00;;;9.70;99.90;;;;;;5000596;28;20442;-63
2020/12/15 08:33:27;;;;;;;10.80;3.40;;;9.70;99.90;;;;;;5000427;28;20395;-64
2020/12/15 08:35:54;;;;;;;10.25;3.60;;;9.70;99.90;;;;;;4999150;28;20045;-65
2020/12/15 08:38:21;;;;;;;5.90;3.20;;;9.70;99.90;;;;;;5000435;28;20038;-63
2020/12/15 08:40:57;;;;;;;7.50;3.38;;;9.70;99.90;;;;;;5000589;28;20029;-64
2020/12/15 08:43:23;;;;;;;6.47;3.92;;;9.70;99.90;;;;;;5000870;28;20041;-64
2020/12/15 08:45:49;;;;;;;7.18;3.60;;;9.70;99.90;;;;;;5000261;28;20034;-64
2020/12/15 08:48:17;;;;;;;8.88;3.60;;;9.70;99.90;;;;;;4999310;28;20406;-64
2020/12/15 08:50:43;;;;;;;8.93;3.67;;;9.70;99.90;;;;;;4999653;28;20494;-63
2020/12/15 08:53:11;;;;;;;9.32;3.72;;;9.80;99.90;;;;;;4997021;28;20034;-64
2020/12/15 08:55:38;;;;;;;6.18;3.55;;;9.80;99.90;;;;;;4997267;28;20030;-63
2020/12/15 08:58:05;;;;;;;10.43;3.70;;;9.80;99.90;;;;;;4994386;28;20046;-65
2020/12/15 09:00:36;;;;;;;9.52;3.45;;;9.80;99.90;;;;;;4999016;28;20031;-63
2020/12/15 09:03:29;;;;;;;8.02;3.65;;;9.80;99.90;;;;;;4994061;28;20038;-65
2020/12/15 09:05:57;;;;;;;8.77;3.40;;;9.80;99.90;;;;;;4997069;28;20475;-64
2020/12/15 09:08:24;;;;;;;7.65;2.63;;;9.80;99.90;;;;;;5000670;28;20402;-65
2020/12/15 09:10:52;;;;;;;14.70;3.85;;;9.90;99.90;;;;;;4997939;28;20030;-62
2020/12/15 09:13:17;;;;;;;8.82;3.50;;;9.80;99.90;;;;;;4998726;28;20112;-64
2020/12/15 09:15:47;;;;;;;6.85;3.22;;;9.80;99.90;;;;;;4999243;28;20114;-65
2020/12/15 09:18:14;;;;;;;8.05;2.17;;;9.90;99.90;;;;;;5000661;28;20030;-65
2020/12/15 09:20:39;;;;;;;11.93;3.40;;;9.90;99.90;;;;;;4993179;28;20041;-65
2020/12/15 09:23:12;;;;;;;8.85;3.58;;;9.90;99.90;;;;;;4998364;28;20033;-65
2020/12/15 09:25:38;;;;;;;8.35;3.88;;;9.90;99.90;;;;;;4996762;28;20113;-64
2020/12/15 09:28:03;;;;;;;9.20;3.10;;;9.90;99.90;;;;;;5000973;28;20494;-63
2020/12/15 09:30:29;;;;;;;11.30;4.93;;;10.00;99.90;;;;;;4998313;28;20061;-65
2020/12/15 09:32:54;;;;;;;10.02;3.88;;;10.00;99.90;;;;;;5000426;28;20518;-63
2020/12/15 09:35:20;;;;;;;11.02;4.40;;;10.00;99.90;;;;;;4998621;28;20042;-65
2020/12/15 09:37:46;;;;;;;8.60;3.72;;;10.00;99.90;;;;;;4998977;28;20023;-64
2020/12/15 09:40:13;;;;;;;9.13;3.88;;;10.00;99.90;;;;;;4999887;28;20040;-65
2020/12/15 09:42:43;;;;;;;9.48;4.40;;;10.10;99.90;;;;;;4997647;28;20038;-63
2020/12/15 09:45:09;;;;;;;7.85;4.05;;;10.10;99.90;;;;;;4999861;28;20034;-64
2020/12/15 09:47:40;;;;;;;9.35;4.00;;;10.20;99.90;;;;;;4997447;28;20042;-64
2020/12/15 09:50:05;;;;;;;9.45;4.05;;;10.20;99.90;;;;;;4994100;28;20037;-64
2020/12/15 09:52:31;;;;;;;8.57;3.83;;;10.20;99.90;;;;;;4996256;28;20061;-66
2020/12/15 09:54:56;;;;;;;15.55;4.55;;;10.30;99.90;;;;;;5000527;28;20376;-64
2020/12/15 09:57:22;;;;;;;11.55;4.05;;;10.20;99.90;;;;;;4996488;28;20473;-64
2020/12/15 09:59:47;;;;;;;10.20;3.65;;;10.20;99.90;;;;;;4999092;28;20034;-64
2020/12/15 10:02:13;;;;;;;11.20;4.38;;;10.30;99.90;;;;;;4997523;28;20309;-65
2020/12/15 10:04:39;;;;;;;7.15;3.45;;;10.30;99.90;;;;;;4996880;28;20173;-64
2020/12/15 10:07:04;;;;;;;10.73;3.90;;;10.20;99.90;;;;;;4996795;28;20125;-63
2020/12/15 10:09:30;;;;;;;12.07;5.55;;;10.20;99.90;;;;;;4994931;28;20522;-64
2020/12/15 10:11:55;;;;;;;8.70;4.95;;;10.20;99.90;;;;;;5000283;28;20099;-63
2020/12/15 10:14:21;;;;;;;10.02;3.70;;;10.20;99.90;;;;;;4998139;28;20038;-63
2020/12/15 10:16:46;;;;;;;10.27;4.25;;;10.20;99.90;;;;;;4997703;28;20046;-64
2020/12/15 10:19:12;;;;;;;8.10;3.50;;;10.10;99.90;;;;;;4994311;28;20039;-63
2020/12/15 10:21:37;;;;;;;8.65;3.50;;;10.20;99.90;;;;;;4994910;28;20491;-65
2020/12/15 10:24:04;;;;;;;7.20;3.85;;;10.20;99.90;;;;;;4995838;28;20041;-65
2020/12/15 10:26:30;;;;;;;8.98;4.05;;;10.20;99.90;;;;;;4996155;28;20112;-65
2020/12/15 10:28:56;;;;;;;14.63;5.00;;;10.20;99.90;;;;;;4997687;28;20030;-63
2020/12/15 10:31:22;;;;;;;8.77;4.00;;;10.20;99.90;;;;;;4996002;28;20045;-63
2020/12/15 10:33:48;;;;;;;8.13;4.13;;;10.20;99.90;;;;;;4997930;28;20491;-64
2020/12/15 10:36:16;;;;;;;14.40;5.05;;;10.20;99.90;;;;;;4996979;28;20041;-63
2020/12/15 10:38:42;;;;;;;9.60;4.28;;;10.20;99.90;;;;;;4995709;28;20030;-63
2020/12/15 10:41:08;;;;;;;10.13;5.03;;;10.20;99.90;;;;;;4997476;28;20022;-64
2020/12/15 10:43:34;;;;;;;10.02;4.88;;;10.20;99.90;;;;;;4990093;28;20108;-65
2020/12/15 10:45:59;;;;;;;12.98;4.45;;;10.20;99.90;;;;;;4989441;28;20098;-65
2020/12/15 10:48:25;;;;;;;9.32;4.57;;;10.30;99.90;;;;;;5017142;23;20111;-61
2020/12/15 10:50:51;;;;;;;8.27;4.07;;;10.30;99.90;;;;;;5014174;28;20076;-61
2020/12/15 10:53:18;;;;;;;7.43;4.13;;;10.30;99.90;;;;;;5015743;28;20036;-60
2020/12/15 10:55:48;;;;;;;10.75;4.53;;;10.30;99.90;;;;;;5019158;28;20032;-61
2020/12/15 10:58:13;;;;;;;8.18;4.05;;;10.40;99.90;;;;;;5015767;28;20026;-60
2020/12/15 11:00:39;;;;;;;8.88;4.47;;;10.30;99.90;;;;;;5014594;28;20037;-61
2020/12/15 11:03:04;;;;;;;7.78;4.47;;;10.30;99.90;;;;;;5008649;28;20490;-61
2020/12/15 11:05:30;;;;;;;11.18;5.03;;;10.40;99.90;;;;;;5013603;28;20406;-60
2020/12/15 11:07:55;;;;;;;8.85;4.38;;;10.40;99.90;;;;;;5018312;28;20053;-61
2020/12/15 11:10:21;;;;;;;11.65;5.00;;;10.30;99.90;;;;;;5012559;28;20057;-61
2020/12/15 11:12:46;;;;;;;10.32;4.72;;;10.40;99.90;;;;;;5013113;28;20038;-61
2020/12/15 11:15:12;;;;;;;11.93;4.75;;;10.30;99.90;;;;;;5013333;28;20049;-61
2020/12/15 11:17:37;;;;;;;14.95;5.80;;;10.40;99.90;;;;;;5006805;28;20030;-60
2020/12/15 11:20:03;;;;;;;11.85;5.00;;;10.30;99.90;;;;;;5040247;28;20116;-61
2020/12/15 11:22:29;;;;;;;11.82;4.72;;;10.30;99.90;;;;;;5004981;28;20065;-61
2020/12/15 11:24:54;;;;;;;13.05;5.20;;;10.30;99.90;;;;;;5006931;28;20030;-61
2020/12/15 11:27:20;;;;;;;11.90;5.32;;;10.40;99.90;;;;;;5008051;28;20498;-59
2020/12/15 11:29:45;;;;;;;10.48;4.97;;;10.40;99.90;;;;;;5007884;28;20033;-61
2020/12/15 11:32:11;;;;;;;10.50;4.72;;;10.40;99.90;;;;;;5008677;28;20034;-61
2020/12/15 11:34:36;;;;;;;9.65;4.75;;;10.40;99.90;;;;;;5008011;28;20532;-61
2020/12/15 11:37:02;;;;;;;12.50;5.28;;;10.40;99.90;;;;;;5007796;28;20029;-60
2020/12/15 11:39:27;;;;;;;10.07;4.68;;;10.40;99.90;;;;;;5008213;28;20437;-61
2020/12/15 11:41:53;;;;;;;14.23;4.50;;;10.40;99.90;;;;;;5008526;28;20591;-60
2020/12/15 11:44:19;;;;;;;10.07;4.63;;;10.40;99.90;;;;;;5007338;28;20117;-60
2020/12/15 11:46:45;;;;;;;12.63;4.95;;;10.40;99.90;;;;;;5011440;28;20100;-61
2020/12/15 11:49:11;;;;;;;12.70;5.05;;;10.40;99.90;;;;;;5010833;28;20034;-61
2020/12/15 11:51:37;;;;;;;10.73;5.30;;;10.40;99.90;;;;;;5011849;28;20037;-61
2020/12/15 11:54:03;;;;;;;23.02;5.95;;;10.40;99.90;;;;;;5010493;28;20448;-61
2020/12/15 11:56:29;;;;;;;13.60;6.00;;;10.40;99.90;;;;;;5011706;28;20034;-61
2020/12/15 11:58:54;;;;;;;12.32;5.45;;;10.40;99.90;;;;;;5013091;28;20030;-61
2020/12/15 12:01:20;;;;;;;10.80;4.95;;;10.40;99.90;;;;;;5011927;28;20066;-61
2020/12/15 12:03:46;;;;;;;16.80;5.45;;;10.30;99.90;;;;;;5014451;28;20037;-60
2020/12/15 12:06:11;;;;;;;9.27;4.72;;;10.40;99.90;;;;;;5012943;28;20030;-61
2020/12/15 12:08:37;;;;;;;10.55;5.10;;;10.30;99.90;;;;;;5011189;28;20041;-61
2020/12/15 12:11:03;;;;;;;11.48;5.22;;;10.30;99.90;;;;;;5012575;28;20044;-61
2020/12/15 12:13:28;;;;;;;17.13;5.60;;;10.30;99.90;;;;;;5011697;28;20052;-60
2020/12/15 12:15:54;;;;;;;7.57;4.35;;;10.30;99.90;;;;;;5012260;28;20529;-61
2020/12/15 12:18:20;;;;;;;9.82;5.03;;;10.30;99.90;;;;;;5012108;28;20241;-61
2020/12/15 12:20:45;;;;;;;15.73;6.28;;;10.30;99.90;;;;;;5012550;28;20413;-61
2020/12/15 12:23:11;;;;;;;11.13;5.45;;;10.30;99.90;;;;;;5012902;28;20065;-61
2020/12/15 12:25:37;;;;;;;18.85;6.05;;;10.30;99.90;;;;;;5014222;28;20049;-63
2020/12/15 12:28:03;;;;;;;14.35;5.65;;;10.30;99.90;;;;;;5012769;28;20207;-61
2020/12/15 12:30:31;;;;;;;8.35;4.68;;;10.30;99.90;;;;;;5013490;28;20394;-61
2020/12/15 12:32:57;;;;;;;14.25;5.50;;;10.30;99.90;;;;;;5012521;28;20068;-61
2020/12/15 12:35:25;;;;;;;13.40;5.80;;;10.40;99.90;;;;;;5012376;28;20057;-61
2020/12/15 12:37:51;;;;;;;12.25;5.25;;;10.40;99.90;;;;;;5008569;28;20030;-62
2020/12/15 12:40:16;;;;;;;12.70;5.70;;;10.40;99.90;;;;;;5011670;28;20424;-60
2020/12/15 12:42:44;;;;;;;8.80;4.95;;;10.40;99.90;;;;;;5015362;28;20172;-61
2020/12/15 12:45:10;;;;;;;13.15;5.43;;;10.40;99.90;;;;;;5022906;28;20040;-61
2020/12/15 12:47:35;;;;;;;11.25;6.15;;;10.40;99.90;;;;;;5045039;28;20034;-65
2020/12/15 12:50:01;;;;;;;13.00;4.93;;;10.40;99.90;;;;;;5023053;28;20034;-61
2020/12/15 12:52:26;;;;;;;9.70;5.28;;;10.40;99.90;;;;;;5013463;28;20045;-61